createdAt,value
2023-03-06T00:01:11.564Z,2.97
2023-03-06T00:04:06.104Z,2.13
2023-03-06T00:07:00.358Z,3.95
2023-03-06T00:09:54.763Z,4.35
2023-03-06T00:12:49.154Z,3.15
2023-03-06T00:15:43.482Z,3.33
2023-03-06T00:18:37.781Z,2.92
2023-03-06T00:21:32.052Z,4.60
2023-03-06T00:24:26.373Z,7.72
2023-03-06T00:27:20.603Z,5.88
2023-03-06T00:30:18.932Z,9.32
2023-03-06T00:33:13.537Z,4.72
2023-03-06T00:36:09.126Z,4.25
2023-03-06T00:39:03.942Z,6.82
2023-03-06T00:41:58.717Z,4.68
2023-03-06T00:44:53.524Z,5.88
2023-03-06T00:47:48.267Z,3.15
2023-03-06T00:50:42.996Z,3.25
2023-03-06T00:53:37.801Z,4.47
2023-03-06T00:56:32.578Z,4.63
2023-03-06T00:59:29.042Z,3.33
2023-03-06T01:02:24.317Z,4.40
2023-03-06T01:05:19.268Z,6.72
2023-03-06T01:08:13.492Z,4.22
2023-03-06T01:11:07.990Z,3.25
2023-03-06T01:14:02.448Z,3.55
2023-03-06T01:16:56.910Z,5.93
2023-03-06T01:19:51.303Z,4.43
2023-03-06T01:22:45.819Z,4.40
2023-03-06T01:25:40.061Z,3.67
2023-03-06T01:28:36.350Z,6.40
2023-03-06T01:31:31.064Z,3.25
2023-03-06T01:34:25.350Z,4.68
2023-03-06T01:37:19.636Z,2.75
2023-03-06T01:40:14.826Z,4.78
2023-03-06T01:43:32.023Z,2.28
2023-03-06T01:46:29.975Z,2.80
2023-03-06T01:49:26.392Z,2.88
2023-03-06T01:52:24.918Z,1.13
2023-03-06T01:55:24.250Z,3.08
2023-03-06T01:58:20.605Z,1.42
2023-03-06T02:01:17.292Z,2.53
2023-03-06T02:04:13.146Z,2.63
2023-03-06T02:07:09.178Z,1.52
2023-03-06T02:10:03.607Z,2.95
2023-03-06T02:12:58.056Z,8.23
2023-03-06T02:15:52.333Z,2.97
2023-03-06T02:18:48.675Z,3.67
2023-03-06T02:21:43.016Z,3.17
2023-03-06T02:24:46.412Z,2.90
2023-03-06T02:27:40.777Z,5.43
2023-03-06T02:30:35.194Z,4.68
2023-03-06T02:33:31.246Z,4.45
2023-03-06T02:36:25.591Z,1.75
2023-03-06T02:39:25.129Z,1.52
2023-03-06T02:42:25.829Z,2.40
2023-03-06T02:45:27.621Z,2.72
2023-03-06T02:48:22.807Z,3.53
2023-03-06T02:51:17.163Z,3.03
2023-03-06T02:54:12.198Z,3.65
2023-03-06T02:57:06.768Z,2.67
2023-03-06T03:00:01.063Z,2.72
2023-03-06T03:02:55.778Z,5.15
2023-03-06T03:05:50.093Z,2.17
2023-03-06T03:08:44.472Z,4.85
2023-03-06T03:11:38.921Z,4.75
2023-03-06T03:14:33.190Z,1.90
2023-03-06T03:17:27.569Z,3.58
2023-03-06T03:20:24.373Z,5.53
2023-03-06T03:23:18.672Z,3.92
2023-03-06T03:26:19.936Z,2.28
2023-03-06T03:29:16.502Z,3.28
2023-03-06T03:32:11.203Z,2.15
2023-03-06T03:35:06.842Z,3.85
2023-03-06T03:38:01.323Z,1.55
2023-03-06T03:40:55.735Z,3.30
2023-03-06T03:43:50.310Z,4.38
2023-03-06T03:46:44.820Z,3.60
2023-03-06T03:49:39.136Z,2.17
2023-03-06T03:52:33.495Z,4.72
2023-03-06T03:55:27.904Z,2.55
2023-03-06T03:58:22.121Z,2.95
2023-03-06T04:01:16.314Z,3.28
2023-03-06T04:04:10.635Z,3.33
2023-03-06T04:07:05.629Z,5.07
2023-03-06T04:09:59.926Z,3.95
2023-03-06T04:12:54.110Z,4.00
2023-03-06T04:15:51.849Z,3.45
2023-03-06T04:18:46.083Z,1.65
2023-03-06T04:21:40.360Z,3.97
2023-03-06T04:24:34.693Z,3.00
2023-03-06T04:27:28.998Z,3.50
2023-03-06T04:30:23.286Z,3.03
2023-03-06T04:33:17.648Z,1.88
2023-03-06T04:36:32.816Z,2.90
2023-03-06T04:39:27.110Z,4.10
2023-03-06T04:42:21.464Z,3.30
2023-03-06T04:45:16.588Z,4.68
2023-03-06T04:48:11.844Z,4.50
2023-03-06T04:51:06.351Z,2.50
2023-03-06T04:54:00.650Z,1.88
2023-03-06T04:56:54.941Z,4.57
2023-03-06T04:59:50.836Z,2.42
2023-03-06T05:02:46.192Z,2.08
2023-03-06T05:05:40.443Z,4.10
2023-03-06T05:08:34.791Z,2.13
2023-03-06T05:11:29.115Z,2.30
2023-03-06T05:14:23.411Z,1.55
2023-03-06T05:17:17.608Z,1.92
2023-03-06T05:20:15.112Z,5.85
2023-03-06T05:23:09.355Z,2.38
2023-03-06T05:26:06.763Z,3.70
2023-03-06T05:29:00.978Z,3.97
2023-03-06T05:31:55.264Z,2.42
2023-03-06T05:34:50.606Z,3.00
2023-03-06T05:37:44.967Z,3.67
2023-03-06T05:40:43.100Z,3.67
2023-03-06T05:43:37.351Z,2.28
2023-03-06T05:46:31.630Z,5.32
2023-03-06T05:49:25.958Z,1.02
2023-03-06T05:52:20.266Z,1.73
2023-03-06T05:55:15.061Z,3.92
2023-03-06T05:58:09.338Z,3.90
2023-03-06T06:01:17.420Z,3.03
2023-03-06T06:04:12.743Z,2.20
2023-03-06T06:07:07.566Z,1.65
2023-03-06T06:10:03.645Z,2.10
2023-03-06T06:12:58.246Z,1.90
2023-03-06T06:15:52.512Z,4.18
2023-03-06T06:18:47.457Z,3.60
2023-03-06T06:21:41.672Z,3.75
2023-03-06T06:24:36.074Z,3.53
2023-03-06T06:27:30.248Z,4.70
2023-03-06T06:30:25.513Z,3.22
2023-03-06T06:33:19.736Z,6.97
2023-03-06T06:36:21.956Z,5.93
2023-03-06T06:39:19.224Z,4.10
2023-03-06T06:42:30.476Z,3.90
2023-03-06T06:45:27.746Z,5.80
2023-03-06T06:48:21.982Z,4.82
2023-03-06T06:51:16.208Z,2.80
2023-03-06T06:54:11.763Z,6.57
2023-03-06T06:57:06.179Z,3.38
2023-03-06T07:00:00.417Z,3.40
2023-03-06T07:02:54.633Z,3.42
2023-03-06T07:05:57.309Z,2.83
2023-03-06T07:08:51.602Z,4.22
2023-03-06T07:11:45.970Z,2.67
2023-03-06T07:14:42.611Z,7.38
2023-03-06T07:17:36.921Z,4.45
2023-03-06T07:20:33.121Z,4.88
2023-03-06T07:23:27.905Z,3.33
2023-03-06T07:26:22.187Z,5.03
2023-03-06T07:29:17.359Z,2.80
2023-03-06T07:32:12.596Z,3.65
2023-03-06T07:35:19.860Z,3.85
2023-03-06T07:38:15.590Z,4.30
2023-03-06T07:41:14.570Z,3.63
2023-03-06T07:44:09.035Z,3.45
2023-03-06T07:47:04.719Z,4.70
2023-03-06T07:49:59.984Z,3.13
2023-03-06T07:52:55.421Z,5.82
2023-03-06T07:55:49.913Z,7.57
2023-03-06T07:58:46.478Z,9.32
2023-03-06T08:01:41.444Z,5.03
2023-03-06T08:04:36.634Z,6.43
2023-03-06T08:07:32.329Z,2.53
2023-03-06T08:10:26.721Z,4.45
2023-03-06T08:13:21.135Z,4.38
2023-03-06T08:16:15.622Z,5.10
2023-03-06T08:19:10.007Z,3.65
2023-03-06T08:22:05.544Z,6.05
2023-03-06T08:24:59.813Z,1.98
2023-03-06T08:27:54.589Z,4.63
2023-03-06T08:30:49.112Z,4.85
2023-03-06T08:33:44.883Z,2.22
2023-03-06T08:36:39.990Z,4.10
2023-03-06T08:39:34.594Z,3.42
2023-03-06T08:42:29.014Z,1.90
2023-03-06T08:45:23.648Z,2.13
2023-03-06T08:48:17.945Z,2.90
2023-03-06T08:51:13.216Z,4.05
2023-03-06T08:54:07.827Z,4.22
2023-03-06T08:57:02.198Z,4.90
2023-03-06T08:59:57.997Z,5.43
2023-03-06T09:02:52.375Z,4.03
2023-03-06T09:05:46.711Z,2.97
2023-03-06T09:08:44.284Z,2.70
2023-03-06T09:11:39.544Z,4.82
2023-03-06T09:14:34.222Z,5.60
2023-03-06T09:17:28.484Z,4.50
2023-03-06T09:20:23.607Z,5.28
2023-03-06T09:23:17.840Z,5.65
2023-03-06T09:26:13.661Z,3.92
2023-03-06T09:29:07.987Z,4.75
2023-03-06T09:32:02.337Z,3.65
2023-03-06T09:34:56.811Z,6.43
2023-03-06T09:37:51.044Z,5.95
2023-03-06T09:41:03.200Z,5.88
2023-03-06T09:44:15.873Z,6.72
2023-03-06T09:47:34.849Z,9.50
2023-03-06T09:50:32.194Z,6.60
2023-03-06T09:56:39.420Z,9.00
2023-03-06T09:59:34.864Z,6.40
2023-03-06T10:02:53.848Z,7.53
2023-03-06T10:06:40.344Z,7.82
2023-03-06T10:09:43.603Z,7.28
2023-03-06T10:12:46.675Z,5.13
2023-03-06T10:15:45.654Z,3.42
2023-03-06T10:18:41.224Z,5.07
2023-03-06T10:21:59.848Z,4.88
2023-03-06T10:25:17.901Z,3.47
2023-03-06T10:28:23.453Z,7.00
2023-03-06T10:31:29.177Z,5.53
2023-03-06T10:34:32.748Z,5.45
2023-03-06T10:37:32.538Z,4.47
2023-03-06T10:40:37.507Z,6.28
2023-03-06T10:43:33.455Z,5.35
2023-03-06T10:46:32.995Z,5.32
2023-03-06T10:49:38.328Z,8.77
2023-03-06T10:52:37.342Z,11.90
2023-03-06T10:55:34.028Z,9.32
2023-03-06T10:58:31.315Z,8.73
2023-03-06T11:04:27.032Z,11.32
2023-03-06T11:07:27.927Z,9.32
2023-03-06T11:10:24.564Z,9.32
2023-03-06T11:13:26.164Z,6.88
2023-03-06T11:16:29.186Z,8.10
2023-03-06T11:19:29.348Z,6.03
2023-03-06T11:22:23.626Z,9.63
2023-03-06T11:25:20.455Z,8.73
2023-03-06T11:28:33.318Z,6.78
2023-03-06T11:31:55.105Z,8.40
2023-03-06T11:34:52.361Z,2.92
2023-03-06T11:41:04.117Z,3.60
2023-03-06T11:44:35.238Z,4.47
2023-03-06T11:48:02.959Z,4.97
2023-03-06T11:51:12.388Z,6.22
2023-03-06T11:54:07.088Z,5.55
2023-03-06T11:57:11.466Z,8.80
2023-03-06T12:00:27.537Z,7.93
2023-03-06T12:03:45.358Z,4.88
2023-03-06T12:06:52.142Z,6.60
2023-03-06T12:09:49.326Z,7.43
2023-03-06T12:16:14.551Z,10.23
2023-03-06T12:19:30.028Z,13.30
2023-03-06T12:23:02.345Z,7.70
2023-03-06T12:26:08.413Z,12.18
2023-03-06T12:29:18.863Z,12.75
2023-03-06T12:32:31.575Z,13.70
2023-03-06T12:36:06.584Z,12.55
2023-03-06T12:40:01.711Z,14.38
2023-03-06T12:43:38.908Z,19.92
2023-03-06T12:46:57.062Z,18.58
2023-03-06T12:49:58.160Z,16.20
2023-03-06T12:52:55.167Z,10.00
2023-03-06T12:55:52.275Z,14.18
2023-03-06T12:58:51.267Z,13.80
2023-03-06T13:02:01.225Z,11.65
2023-03-06T13:05:23.451Z,12.30
2023-03-06T13:08:54.536Z,12.63
2023-03-06T13:12:00.978Z,17.35
2023-03-06T13:14:57.714Z,15.73
2023-03-06T13:17:52.269Z,10.90
2023-03-06T13:20:47.320Z,15.63
2023-03-06T13:24:07.865Z,10.32
2023-03-06T13:27:03.596Z,13.60
2023-03-06T13:30:28.810Z,8.15
2023-03-06T13:33:31.176Z,13.57
2023-03-06T13:36:39.454Z,15.10
2023-03-06T13:39:56.503Z,10.98
2023-03-06T13:43:06.142Z,12.23
2023-03-06T13:46:26.099Z,11.48
2023-03-06T13:49:26.324Z,13.90
2023-03-06T13:52:38.646Z,12.40
2023-03-06T13:56:22.334Z,9.75
2023-03-06T13:59:34.975Z,12.38
2023-03-06T14:02:38.149Z,9.15
2023-03-06T14:05:47.585Z,7.80
2023-03-06T14:08:43.107Z,9.93
2023-03-06T14:11:39.110Z,6.25
2023-03-06T14:14:47.476Z,6.25
2023-03-06T14:17:59.478Z,8.57
2023-03-06T14:21:13.212Z,13.32
2023-03-06T14:24:07.994Z,6.47
2023-03-06T14:27:02.731Z,10.38
2023-03-06T14:29:37.050Z,11.70
2023-03-06T14:32:13.400Z,9.10
2023-03-06T14:35:08.360Z,5.13
2023-03-06T14:38:09.875Z,7.10
2023-03-06T14:41:06.430Z,11.05
2023-03-06T14:44:23.166Z,17.05
2023-03-06T14:47:27.286Z,11.18
2023-03-06T14:50:29.047Z,9.90
2023-03-06T14:53:33.730Z,10.32
2023-03-06T14:56:29.276Z,7.72
2023-03-06T14:59:28.180Z,8.88
2023-03-06T15:02:28.593Z,10.70
2023-03-06T15:05:31.976Z,11.77
2023-03-06T15:08:33.948Z,10.48
2023-03-06T15:11:28.183Z,12.15
2023-03-06T15:14:30.180Z,10.48
2023-03-06T15:17:29.785Z,8.32
2023-03-06T15:20:42.786Z,13.98
2023-03-06T15:23:42.944Z,12.80
2023-03-06T15:26:42.019Z,10.80
2023-03-06T15:29:39.640Z,9.88
2023-03-06T15:32:37.083Z,11.75
2023-03-06T15:35:37.880Z,12.48
2023-03-06T15:38:42.487Z,10.25
2023-03-06T15:41:39.479Z,10.65
2023-03-06T15:45:23.016Z,9.25
2023-03-06T15:48:19.841Z,10.30
2023-03-06T15:51:14.318Z,13.98
2023-03-06T15:54:12.173Z,11.18
2023-03-06T15:57:13.298Z,9.30
2023-03-06T16:00:26.383Z,8.65
2023-03-06T16:03:21.600Z,9.38
2023-03-06T16:06:24.788Z,9.95
2023-03-06T16:09:19.089Z,10.57
2023-03-06T16:12:21.897Z,10.07
2023-03-06T16:15:42.702Z,10.00
2023-03-06T16:18:36.912Z,7.38
2023-03-06T16:21:31.268Z,9.25
2023-03-06T16:24:27.346Z,12.05
2023-03-06T16:27:24.031Z,11.27
2023-03-06T16:30:22.119Z,14.60
2023-03-06T16:33:16.942Z,11.57
2023-03-06T16:36:24.260Z,13.25
2023-03-06T16:39:20.878Z,10.00
2023-03-06T16:42:17.690Z,7.30
2023-03-06T16:45:12.892Z,9.13
2023-03-06T16:48:08.443Z,9.68
2023-03-06T16:51:02.915Z,12.95
2023-03-06T16:53:57.160Z,9.00
2023-03-06T16:56:51.391Z,9.25
2023-03-06T16:59:45.681Z,10.23
2023-03-06T17:02:41.681Z,6.57
2023-03-06T17:05:37.488Z,8.88
2023-03-06T17:08:32.109Z,7.18
2023-03-06T17:11:26.384Z,10.18
2023-03-06T17:14:20.778Z,8.02
2023-03-06T17:17:15.498Z,12.60
2023-03-06T17:20:10.742Z,11.70
2023-03-06T17:23:05.014Z,10.32
2023-03-06T17:26:15.204Z,12.55
2023-03-06T17:29:10.694Z,12.52
2023-03-06T17:32:05.433Z,6.57
2023-03-06T17:34:59.819Z,11.32
2023-03-06T17:37:54.240Z,10.98
2023-03-06T17:40:48.570Z,12.52
2023-03-06T17:43:42.961Z,7.55
2023-03-06T17:46:37.283Z,11.63
2023-03-06T17:49:32.105Z,8.73
2023-03-06T17:52:26.371Z,12.15
2023-03-06T17:55:20.730Z,11.55
2023-03-06T17:58:14.972Z,8.68
2023-03-06T18:01:14.693Z,9.05
2023-03-06T18:04:08.951Z,8.93
2023-03-06T18:07:03.308Z,11.57
2023-03-06T18:09:57.827Z,7.88
2023-03-06T18:12:52.517Z,10.18
2023-03-06T18:15:46.700Z,9.52
2023-03-06T18:18:41.081Z,8.77
2023-03-06T18:21:35.337Z,9.23
2023-03-06T18:24:29.840Z,8.85
2023-03-06T18:27:24.796Z,10.15
2023-03-06T18:30:19.564Z,8.27
2023-03-06T18:33:14.140Z,6.70
2023-03-06T18:36:08.708Z,6.10
2023-03-06T18:39:04.916Z,9.98
2023-03-06T18:42:01.528Z,7.90
2023-03-06T18:44:55.721Z,5.68
2023-03-06T18:47:50.018Z,7.95
2023-03-06T18:50:44.315Z,6.60
2023-03-06T18:53:41.043Z,6.90
2023-03-06T18:56:36.158Z,5.22
2023-03-06T18:59:30.534Z,8.43
2023-03-06T19:02:24.854Z,5.45
2023-03-06T19:05:19.195Z,10.85
2023-03-06T19:08:13.996Z,7.53
2023-03-06T19:11:11.071Z,9.10
2023-03-06T19:14:05.339Z,8.57
2023-03-06T19:16:59.644Z,14.63
2023-03-06T19:19:53.925Z,5.28
2023-03-06T19:22:48.230Z,5.10
2023-03-06T19:25:42.489Z,10.75
2023-03-06T19:28:41.724Z,8.07
2023-03-06T19:31:35.959Z,7.30
2023-03-06T19:34:30.279Z,6.03
2023-03-06T19:37:24.611Z,7.30
2023-03-06T19:40:19.274Z,8.18
2023-03-06T19:43:13.551Z,8.82
2023-03-06T19:46:08.247Z,7.72
2023-03-06T19:49:12.851Z,9.85
2023-03-06T19:52:10.503Z,9.95
2023-03-06T19:55:04.852Z,10.52
2023-03-06T19:57:59.710Z,8.20
2023-03-06T20:00:53.999Z,9.23
2023-03-06T20:03:48.614Z,9.35
2023-03-06T20:06:42.906Z,8.13
2023-03-06T20:09:37.212Z,9.00
2023-03-06T20:12:31.713Z,9.55
2023-03-06T20:15:26.069Z,5.13
2023-03-06T20:18:20.299Z,8.60
2023-03-06T20:21:15.741Z,12.77
2023-03-06T20:24:17.742Z,12.10
2023-03-06T20:27:12.010Z,10.75
2023-03-06T20:30:08.077Z,10.18
2023-03-06T20:33:02.541Z,6.97
2023-03-06T20:35:56.834Z,11.95
2023-03-06T20:38:51.795Z,12.05
2023-03-06T20:41:47.986Z,8.50
2023-03-06T20:44:42.617Z,8.48
2023-03-06T20:47:36.986Z,8.38
2023-03-06T20:50:31.418Z,6.63
2023-03-06T20:53:25.703Z,7.13
2023-03-06T20:56:25.065Z,7.70
2023-03-06T20:59:19.662Z,9.82
2023-03-06T21:02:16.096Z,5.50
2023-03-06T21:05:10.837Z,12.00
2023-03-06T21:08:05.197Z,11.48
2023-03-06T21:11:02.592Z,4.60
2023-03-06T21:13:57.643Z,16.25
2023-03-06T21:16:51.940Z,6.60
2023-03-06T21:19:48.568Z,6.30
2023-03-06T21:22:42.734Z,9.00
2023-03-06T21:25:38.210Z,6.47
2023-03-06T21:28:33.134Z,9.88
2023-03-06T21:31:29.523Z,7.45
2023-03-06T21:34:23.895Z,9.77
2023-03-06T21:37:18.284Z,6.05
2023-03-06T21:40:13.586Z,6.13
2023-03-06T21:43:08.135Z,8.95
2023-03-06T21:46:02.436Z,7.00
2023-03-06T21:48:57.515Z,5.15
2023-03-06T21:51:51.820Z,6.60
2023-03-06T21:54:46.085Z,8.25
2023-03-06T21:57:40.300Z,7.50
2023-03-06T22:00:37.497Z,13.02
2023-03-06T22:06:28.822Z,8.25
2023-03-06T22:09:23.135Z,4.22
2023-03-06T22:12:17.346Z,5.43
2023-03-06T22:15:12.198Z,6.35
2023-03-06T22:18:06.772Z,6.07
2023-03-06T22:21:01.107Z,9.48
2023-03-06T22:24:00.582Z,6.63
2023-03-06T22:26:55.812Z,6.18
2023-03-06T22:29:50.236Z,6.93
2023-03-06T22:32:44.543Z,11.32
2023-03-06T22:35:38.894Z,13.20
2023-03-06T22:38:36.903Z,9.77
2023-03-06T22:41:31.438Z,9.25
2023-03-06T22:44:25.954Z,11.27
2023-03-06T22:47:20.286Z,9.88
2023-03-06T22:50:14.482Z,6.93
2023-03-06T22:53:08.779Z,9.27
2023-03-06T22:56:05.568Z,6.03
2023-03-06T22:59:00.224Z,14.73
2023-03-06T23:01:54.587Z,6.40
2023-03-06T23:04:54.497Z,6.75
2023-03-06T23:07:48.797Z,5.45
2023-03-06T23:10:43.145Z,3.47
2023-03-06T23:13:38.028Z,6.65
2023-03-06T23:16:32.707Z,3.08
2023-03-06T23:19:27.938Z,7.65
2023-03-06T23:22:22.364Z,5.03
2023-03-06T23:25:16.822Z,6.13
2023-03-06T23:28:11.519Z,3.63
2023-03-06T23:31:14.000Z,7.32
2023-03-06T23:34:10.810Z,7.20
2023-03-06T23:37:05.080Z,3.63
2023-03-06T23:39:59.449Z,5.47
2023-03-06T23:42:53.673Z,4.72
2023-03-06T23:45:57.752Z,4.63
2023-03-06T23:48:51.981Z,7.05
2023-03-06T23:51:46.303Z,5.85
2023-03-06T23:54:40.603Z,6.78
2023-03-06T23:57:35.181Z,7.10
